createdAt,value
2022-12-19T00:18:39.514Z,40.9
2022-12-19T00:38:39.441Z,41.1
2022-12-19T00:58:39.421Z,41.1
2022-12-19T01:18:39.433Z,41.2
2022-12-19T01:38:39.374Z,41.3
2022-12-19T01:58:39.354Z,41.3
2022-12-19T02:18:39.306Z,41.4
2022-12-19T02:38:39.299Z,41.5
2022-12-19T02:58:39.285Z,41.5
2022-12-19T03:18:39.258Z,41.6
2022-12-19T03:38:39.276Z,41.6
2022-12-19T03:58:39.251Z,41.6
2022-12-19T04:18:39.186Z,41.8
2022-12-19T04:38:39.168Z,41.7
2022-12-19T04:58:39.136Z,41.6
2022-12-19T05:18:39.114Z,41.4
2022-12-19T05:38:39.109Z,41.4
2022-12-19T05:58:39.091Z,41.3
2022-12-19T06:18:39.081Z,41.2
2022-12-19T06:38:39.009Z,41.2
2022-12-19T06:58:39.021Z,41.2
2022-12-19T07:18:38.978Z,41.7
2022-12-19T07:38:38.979Z,42.0
2022-12-19T07:58:38.950Z,42.3
2022-12-19T08:18:39.033Z,42.8
2022-12-19T08:38:38.897Z,42.6
2022-12-19T08:58:38.912Z,42.1
2022-12-19T09:18:38.836Z,41.8
2022-12-19T09:38:38.825Z,41.7
2022-12-19T09:58:38.879Z,41.4
2022-12-19T10:18:38.827Z,41.3
2022-12-19T10:38:38.745Z,41.3
2022-12-19T10:58:38.736Z,41.2
2022-12-19T11:18:38.712Z,41.0
2022-12-19T11:38:38.655Z,40.8
2022-12-19T11:58:38.619Z,40.8
2022-12-19T12:18:38.637Z,40.6
2022-12-19T12:38:38.604Z,40.8
2022-12-19T12:58:38.564Z,41.1
2022-12-19T13:18:38.563Z,41.6
2022-12-19T13:38:38.503Z,41.6
2022-12-19T13:58:38.493Z,41.6
2022-12-19T14:18:38.463Z,41.6
2022-12-19T14:38:38.461Z,41.6
2022-12-19T14:58:38.419Z,41.7
2022-12-19T15:18:38.362Z,41.7
2022-12-19T15:38:38.393Z,41.7
2022-12-19T15:58:38.325Z,41.8
2022-12-19T16:18:38.354Z,41.8
2022-12-19T16:38:38.327Z,42.0
2022-12-19T16:58:38.287Z,41.8
2022-12-19T17:18:38.246Z,42.2
2022-12-19T17:38:38.267Z,42.1
2022-12-19T17:58:38.276Z,42.1
2022-12-19T18:18:38.174Z,42.0
2022-12-19T18:38:38.230Z,42.0
2022-12-19T18:58:38.152Z,41.8
2022-12-19T19:18:38.152Z,41.8
2022-12-19T19:38:38.072Z,41.9
2022-12-19T19:58:38.058Z,41.8
2022-12-19T20:18:38.055Z,41.9
2022-12-19T20:38:38.009Z,42.0
2022-12-19T20:58:37.944Z,42.0
2022-12-19T21:18:37.993Z,42.1
2022-12-19T21:38:38.015Z,42.1
2022-12-19T21:58:37.874Z,42.2
2022-12-19T22:18:37.875Z,42.3
2022-12-19T22:38:37.826Z,42.5
2022-12-19T22:58:37.838Z,42.6
2022-12-19T23:18:37.929Z,42.7
2022-12-19T23:38:37.779Z,42.8
2022-12-19T23:58:37.751Z,42.9
